Time;durP1;ratioP1;P1;durP2;ratioP2;P2;SDS_P1;SDS_P2;PMS_P1;PMS_P2;Temp;Humidity;BMP_temperature;BMP_pressure;BME280_temperature;BME280_humidity;BME280_pressure;Samples;Min_cycle;Max_cycle;Signal;HPM_P1;HPM_P2
2021/08/17 00:00:13;;;;;;;13.18;5.32;;;;;;;11.20;93.37;101092.06;693910;28;4270;-56
2021/08/17 00:00:33;;;;;;;12.60;5.33;;;;;;;11.15;94.16;101088.59;694667;28;1753;-52
2021/08/17 00:00:53;;;;;;;13.82;5.38;;;;;;;11.12;94.00;101085.06;693142;28;2129;-56
2021/08/17 00:01:14;;;;;;;14.63;5.40;;;;;;;11.10;94.11;101092.06;694241;28;1793;-55
2021/08/17 00:01:34;;;;;;;13.15;5.53;;;;;;;11.07;94.47;101090.31;694779;28;900;-53
2021/08/17 00:01:54;;;;;;;13.83;5.93;;;;;;;11.12;94.24;101090.31;693927;28;814;-57
2021/08/17 00:02:15;;;;;;;13.32;5.82;;;;;;;11.08;94.23;101094.69;693059;28;4724;-56
2021/08/17 00:02:36;;;;;;;13.17;5.23;;;;;;;11.06;94.00;101089.47;691653;28;813;-52
2021/08/17 00:02:56;;;;;;;14.32;5.60;;;;;;;11.06;94.13;101089.47;692246;28;1030;-51
2021/08/17 00:03:17;;;;;;;12.97;5.53;;;;;;;11.06;94.39;101091.19;691018;28;3392;-53
2021/08/17 00:03:37;;;;;;;13.00;5.68;;;;;;;11.05;93.80;101089.47;694075;28;4217;-56
2021/08/17 00:03:57;;;;;;;14.97;5.67;;;;;;;11.03;94.51;101093.81;692751;28;1630;-57
2021/08/17 00:04:18;;;;;;;14.30;5.60;;;;;;;11.03;94.31;101091.19;693311;28;1436;-53
2021/08/17 00:04:38;;;;;;;13.07;5.53;;;;;;;11.11;94.18;101079.00;694335;28;1724;-54
2021/08/17 00:04:58;;;;;;;12.63;5.43;;;;;;;11.17;93.95;101088.56;695128;28;923;-54
2021/08/17 00:05:19;;;;;;;14.33;5.40;;;;;;;11.14;94.28;101083.34;692825;28;4590;-57
2021/08/17 00:05:42;;;;;;;12.40;5.57;;;;;;;11.08;94.47;101089.47;692591;28;895;-56
2021/08/17 00:06:03;;;;;;;12.73;5.50;;;;;;;10.99;94.42;101092.06;694276;28;3274;-57
2021/08/17 00:06:24;;;;;;;13.93;5.53;;;;;;;10.94;94.48;101092.06;693343;28;926;-55
2021/08/17 00:06:44;;;;;;;13.43;5.78;;;;;;;10.94;94.69;101092.06;693967;28;4477;-55
2021/08/17 00:07:07;;;;;;;12.53;5.80;;;;;;;10.95;94.47;101090.31;692605;28;1937;-54
2021/08/17 00:07:27;;;;;;;13.77;5.68;;;;;;;10.94;94.82;101096.41;690763;28;2140;-56
2021/08/17 00:07:48;;;;;;;14.13;5.70;;;;;;;10.94;95.16;101091.19;691553;28;1452;-56
2021/08/17 00:08:09;;;;;;;13.75;6.05;;;;;;;10.92;95.20;101088.56;691841;28;4588;-54
2021/08/17 00:08:30;;;;;;;14.07;5.88;;;;;;;10.92;94.82;101096.41;688950;28;2029;-57
2021/08/17 00:08:50;;;;;;;13.00;5.60;;;;;;;10.96;95.03;101092.06;690531;28;857;-54
2021/08/17 00:09:12;;;;;;;15.13;5.57;;;;;;;11.13;95.00;101089.44;692527;28;1244;-55
2021/08/17 00:09:32;;;;;;;12.95;5.43;;;;;;;11.13;94.32;101087.72;695050;28;927;-55
2021/08/17 00:09:53;;;;;;;14.07;5.70;;;;;;;11.12;93.81;101091.22;694558;28;4414;-57
2021/08/17 00:10:14;;;;;;;13.43;5.67;;;;;;;11.15;94.19;101091.19;693846;28;1933;-54
2021/08/17 00:10:35;;;;;;;14.93;5.72;;;;;;;11.10;94.30;101092.06;693032;28;1719;-54
2021/08/17 00:10:56;;;;;;;13.40;5.60;;;;;;;11.00;94.96;101092.06;692656;28;1513;-55
2021/08/17 00:11:16;;;;;;;14.00;5.95;;;;;;;10.99;95.05;101092.06;693553;28;4572;-56
2021/08/17 00:11:37;;;;;;;13.65;6.03;;;;;;;10.97;94.35;101086.84;694382;28;951;-56
2021/08/17 00:11:57;;;;;;;14.90;5.70;;;;;;;10.99;95.32;101084.22;694935;28;1391;-56
2021/08/17 00:12:17;;;;;;;14.70;5.97;;;;;;;10.97;95.01;101091.22;694411;28;1692;-56
2021/08/17 00:12:38;;;;;;;14.33;6.30;;;;;;;10.94;95.19;101086.84;693717;28;861;-56
2021/08/17 00:12:58;;;;;;;14.32;6.15;;;;;;;10.93;95.41;101092.06;694244;28;4073;-56
2021/08/17 00:13:20;;;;;;;14.37;6.40;;;;;;;10.91;95.35;101092.09;693112;28;4495;-55
2021/08/17 00:13:42;;;;;;;16.67;6.40;;;;;;;10.92;95.16;101085.94;692851;28;2025;-52
2021/08/17 00:14:02;;;;;;;14.23;6.15;;;;;;;10.90;95.39;101083.34;692739;28;1512;-56
2021/08/17 00:14:23;;;;;;;15.40;6.30;;;;;;;10.91;95.39;101092.09;692568;28;4399;-53
2021/08/17 00:14:43;;;;;;;15.38;6.13;;;;;;;10.94;95.15;101089.47;694492;28;856;-56
2021/08/17 00:15:05;;;;;;;13.20;5.70;;;;;;;10.95;94.55;101087.69;693099;28;1041;-56
2021/08/17 00:15:26;;;;;;;13.43;5.93;;;;;;;10.96;95.24;101079.00;693727;28;978;-53
2021/08/17 00:15:47;;;;;;;13.07;5.95;;;;;;;11.00;95.27;101084.22;693381;28;1006;-54
2021/08/17 00:16:07;;;;;;;13.77;6.00;;;;;;;11.00;95.14;101091.19;694017;28;1056;-55
2021/08/17 00:16:28;;;;;;;16.92;6.35;;;;;;;11.02;95.07;101086.81;693496;28;3983;-57
2021/08/17 00:16:48;;;;;;;15.27;6.10;;;;;;;11.02;94.95;101089.44;694564;28;1611;-56
2021/08/17 00:17:10;;;;;;;13.40;6.00;;;;;;;11.00;95.26;101084.22;692154;28;4586;-54
2021/08/17 00:17:31;;;;;;;14.65;6.15;;;;;;;10.97;95.99;101086.84;692926;28;1697;-56
2021/08/17 00:17:51;;;;;;;16.80;6.50;;;;;;;10.97;95.55;101092.06;694897;28;1114;-56
2021/08/17 00:18:12;;;;;;;15.43;6.27;;;;;;;11.00;95.95;101085.97;694437;28;1035;-53
2021/08/17 00:18:32;;;;;;;14.77;6.37;;;;;;;10.99;95.93;101089.44;694562;28;972;-57
2021/08/17 00:18:52;;;;;;;17.80;6.50;;;;;;;10.97;96.01;101091.22;694245;28;868;-53
2021/08/17 00:19:13;;;;;;;14.33;6.27;;;;;;;10.97;96.27;101091.22;693461;28;1073;-54
2021/08/17 00:19:33;;;;;;;13.60;6.10;;;;;;;11.01;96.25;101087.72;693791;28;3701;-55
2021/08/17 00:19:53;;;;;;;16.33;6.40;;;;;;;11.03;95.93;101085.97;694115;28;4309;-57
2021/08/17 00:20:14;;;;;;;16.83;6.13;;;;;;;11.02;95.68;101092.06;692202;28;4393;-52
2021/08/17 00:20:34;;;;;;;13.52;6.00;;;;;;;11.01;95.33;101085.09;690538;28;1222;-55
2021/08/17 00:20:55;;;;;;;15.83;6.30;;;;;;;11.05;95.99;101086.84;691676;28;1271;-53
2021/08/17 00:21:16;;;;;;;15.82;6.93;;;;;;;11.04;95.41;101088.56;693606;28;1333;-55
2021/08/17 00:21:37;;;;;;;15.20;6.28;;;;;;;11.02;95.98;101082.50;694825;28;936;-53
2021/08/17 00:21:57;;;;;;;15.50;6.43;;;;;;;11.08;95.29;101089.47;694081;28;952;-55
2021/08/17 00:22:22;;;;;;;13.57;6.47;;;;;;;11.08;95.61;101084.22;693693;28;997;-54
2021/08/17 00:22:42;;;;;;;13.05;6.43;;;;;;;11.08;95.62;101085.09;694160;28;3903;-55
2021/08/17 00:23:07;;;;;;;14.13;6.60;;;;;;;11.15;95.14;101088.59;693225;28;4926;-53
2021/08/17 00:23:29;;;;;;;16.83;7.07;;;;;;;11.13;95.05;101087.72;692837;28;4747;-57
2021/08/17 00:23:50;;;;;;;14.57;6.30;;;;;;;11.18;94.50;101085.94;693427;28;1175;-54
2021/08/17 00:24:10;;;;;;;16.33;6.50;;;;;;;11.18;94.38;101085.94;693953;28;959;-56
2021/08/17 00:24:33;;;;;;;17.00;6.97;;;;;;;11.29;94.41;101087.72;694360;28;1287;-54
2021/08/17 00:24:54;;;;;;;14.98;6.90;;;;;;;11.28;94.05;101080.72;693198;28;932;-55
2021/08/17 00:25:15;;;;;;;16.52;7.30;;;;;;;11.23;94.39;101084.22;693207;28;876;-57
2021/08/17 00:25:36;;;;;;;18.92;7.35;;;;;;;11.19;94.70;101086.84;694991;28;794;-56
2021/08/17 00:25:56;;;;;;;16.67;7.47;;;;;;;11.15;94.97;101087.72;694188;28;4433;-56
2021/08/17 00:26:17;;;;;;;15.23;6.50;;;;;;;11.12;95.05;101090.31;692049;28;4508;-57
2021/08/17 00:26:37;;;;;;;17.00;6.97;;;;;;;11.16;94.74;101082.47;692719;28;2012;-53
2021/08/17 00:26:58;;;;;;;16.03;6.83;;;;;;;11.15;94.57;101085.97;693663;28;1784;-54
2021/08/17 00:27:18;;;;;;;16.35;7.32;;;;;;;11.12;95.40;101083.34;694384;28;1031;-59
2021/08/17 00:27:39;;;;;;;16.13;7.55;;;;;;;11.14;95.29;101081.59;694254;28;761;-53
2021/08/17 00:27:59;;;;;;;15.50;7.10;;;;;;;11.17;95.12;101084.25;693900;28;830;-56
2021/08/17 00:28:20;;;;;;;18.65;7.07;;;;;;;11.14;95.33;101085.97;694329;28;1323;-53
2021/08/17 00:28:40;;;;;;;18.53;7.00;;;;;;;11.19;95.16;101086.84;694540;28;876;-53
2021/08/17 00:29:00;;;;;;;17.27;6.57;;;;;;;11.16;95.09;101082.47;690659;28;1133;-54
2021/08/17 00:29:21;;;;;;;15.93;7.10;;;;;;;11.20;95.16;101088.56;693526;28;4576;-57
2021/08/17 00:29:41;;;;;;;16.13;7.40;;;;;;;11.16;95.81;101086.81;693971;28;1739;-54
2021/08/17 00:30:03;;;;;;;16.83;7.25;;;;;;;11.13;95.78;101081.59;693933;28;1616;-56
2021/08/17 00:30:24;;;;;;;19.35;7.55;;;;;;;11.12;96.00;101083.34;694504;28;1386;-56
2021/08/17 00:30:44;;;;;;;19.58;7.60;;;;;;;11.10;95.72;101087.69;693446;28;873;-56
2021/08/17 00:31:05;;;;;;;18.30;7.73;;;;;;;11.07;96.07;101082.47;694792;28;1109;-55
2021/08/17 00:31:25;;;;;;;18.02;7.75;;;;;;;11.10;95.85;101087.69;694900;28;813;-54
2021/08/17 00:31:45;;;;;;;17.67;7.03;;;;;;;11.16;95.63;101082.47;693842;28;962;-54
2021/08/17 00:32:06;;;;;;;16.20;7.57;;;;;;;11.21;95.06;101085.09;692179;28;4423;-52
2021/08/17 00:32:27;;;;;;;16.70;7.20;;;;;;;11.18;94.96;101083.34;689826;28;4073;-56
2021/08/17 00:32:47;;;;;;;18.88;7.30;;;;;;;11.27;95.05;101086.81;691526;28;3981;-54
2021/08/17 00:33:07;;;;;;;17.67;7.87;;;;;;;11.27;94.84;101079.88;690342;28;1563;-54
2021/08/17 00:33:30;;;;;;;19.17;8.20;;;;;;;11.32;94.80;101082.47;693724;28;1737;-52
2021/08/17 00:33:50;;;;;;;20.52;7.63;;;;;;;11.36;93.74;101079.84;694557;28;987;-55
2021/08/17 00:34:10;;;;;;;20.03;7.80;;;;;;;11.32;94.28;101080.72;692911;28;1263;-57
2021/08/17 00:34:31;;;;;;;18.17;8.10;;;;;;;11.28;94.21;101084.19;694492;28;895;-57
2021/08/17 00:34:52;;;;;;;16.73;7.57;;;;;;;11.27;94.52;101089.44;694913;28;1424;-57
2021/08/17 00:35:12;;;;;;;18.20;7.75;;;;;;;11.29;94.70;101083.34;693616;28;4583;-53
2021/08/17 00:35:35;;;;;;;16.95;8.00;;;;;;;11.27;94.73;101085.09;693970;28;876;-57
2021/08/17 00:35:56;;;;;;;17.75;8.23;;;;;;;11.24;94.56;101082.47;694277;28;4411;-53
2021/08/17 00:36:17;;;;;;;18.27;7.95;;;;;;;11.22;95.01;101085.09;694633;28;1653;-55
2021/08/17 00:36:37;;;;;;;21.23;8.20;;;;;;;11.21;95.33;101083.31;694969;28;1257;-56
2021/08/17 00:36:57;;;;;;;17.70;7.68;;;;;;;11.19;94.65;101082.47;692352;28;960;-55
2021/08/17 00:37:18;;;;;;;16.43;7.63;;;;;;;11.18;95.10;101083.34;692145;28;1387;-53
2021/08/17 00:37:39;;;;;;;19.02;8.27;;;;;;;11.17;94.92;101080.72;692589;28;1279;-55
2021/08/17 00:38:00;;;;;;;18.65;8.35;;;;;;;11.16;95.53;101086.81;695190;28;951;-55
2021/08/17 00:38:21;;;;;;;19.42;8.45;;;;;;;11.14;95.55;101092.06;693673;28;4426;-54
2021/08/17 00:38:41;;;;;;;18.60;8.57;;;;;;;11.24;95.29;101080.72;694827;28;2952;-52
2021/08/17 00:39:02;;;;;;;17.40;8.32;;;;;;;11.28;94.71;101085.97;693448;28;4533;-54
2021/08/17 00:39:23;;;;;;;19.50;8.60;;;;;;;11.25;95.22;101086.81;693633;28;1486;-56
2021/08/17 00:39:43;;;;;;;19.17;8.90;;;;;;;11.22;94.64;101085.09;694762;28;944;-56
2021/08/17 00:40:04;;;;;;;18.77;8.70;;;;;;;11.23;94.86;101089.44;693543;28;1011;-56
2021/08/17 00:40:25;;;;;;;18.45;8.38;;;;;;;11.22;94.65;101086.84;694133;28;1284;-57
2021/08/17 00:40:46;;;;;;;19.73;8.60;;;;;;;11.18;95.24;101088.56;694008;28;884;-57
2021/08/17 00:41:08;;;;;;;22.25;9.10;;;;;;;11.16;94.71;101085.09;694748;28;4645;-57
2021/08/17 00:41:28;;;;;;;19.77;8.43;;;;;;;11.14;95.00;101086.81;694749;28;995;-56
2021/08/17 00:41:49;;;;;;;21.17;9.07;;;;;;;11.13;95.26;101089.44;692718;28;4234;-54
2021/08/17 00:42:09;;;;;;;20.07;9.03;;;;;;;11.09;94.89;101093.84;692833;28;1494;-57
2021/08/17 00:42:39;;;;;;;22.90;9.02;;;;;;;11.23;94.77;101092.06;693452;28;1850;-54
2021/08/17 00:43:00;;;;;;;21.75;8.95;;;;;;;11.19;94.55;101092.94;693500;28;1021;-54
2021/08/17 00:43:21;;;;;;;21.30;9.27;;;;;;;11.21;94.60;101085.94;693893;28;1433;-55
2021/08/17 00:43:42;;;;;;;19.88;9.13;;;;;;;11.20;94.26;101089.47;693642;28;824;-56
2021/08/17 00:44:04;;;;;;;19.38;9.00;;;;;;;11.20;94.42;101086.84;695060;28;971;-51
2021/08/17 00:44:25;;;;;;;19.25;9.00;;;;;;;11.28;94.16;101093.81;694873;28;4597;-54
2021/08/17 00:44:45;;;;;;;22.20;9.57;;;;;;;11.23;94.34;101094.69;694468;28;4235;-55
2021/08/17 00:45:06;;;;;;;23.33;9.40;;;;;;;11.17;94.37;101088.56;693432;28;1719;-57
2021/08/17 00:45:28;;;;;;;23.30;9.30;;;;;;;11.14;94.33;101089.44;695372;28;2002;-56
2021/08/17 00:45:48;;;;;;;19.75;8.75;;;;;;;11.11;94.32;101084.22;695740;28;935;-56
2021/08/17 00:46:08;;;;;;;18.43;8.60;;;;;;;11.11;94.38;101085.97;694529;28;1018;-52
2021/08/17 00:46:31;;;;;;;17.50;8.82;;;;;;;11.13;94.54;101092.97;695724;28;908;-57
2021/08/17 00:46:55;;;;;;;18.77;9.13;;;;;;;11.13;93.81;101089.44;694171;28;1957;-54
2021/08/17 00:47:16;;;;;;;19.58;9.60;;;;;;;11.21;94.63;101085.09;694450;28;4795;-57
2021/08/17 00:47:36;;;;;;;20.63;9.50;;;;;;;11.18;94.88;101085.94;693962;28;4096;-53
2021/08/17 00:47:57;;;;;;;21.40;9.10;;;;;;;11.17;94.57;101084.25;694742;28;1473;-54
2021/08/17 00:48:18;;;;;;;21.95;9.05;;;;;;;11.22;94.91;101084.22;695026;28;2204;-56
2021/08/17 00:48:40;;;;;;;21.50;9.05;;;;;;;11.27;94.50;101089.44;694305;28;890;-57
2021/08/17 00:49:01;;;;;;;23.05;9.15;;;;;;;11.25;94.35;101086.81;694451;28;848;-55
2021/08/17 00:49:26;;;;;;;20.10;8.93;;;;;;;11.19;94.49;101087.72;694152;28;1019;-53
2021/08/17 00:49:46;;;;;;;18.92;9.25;;;;;;;11.17;94.42;101086.84;694389;28;955;-54
2021/08/17 00:50:07;;;;;;;19.93;9.23;;;;;;;11.17;94.53;101085.97;694345;28;4637;-56
2021/08/17 00:50:30;;;;;;;19.48;9.23;;;;;;;11.24;94.29;101085.97;695349;28;4356;-55
2021/08/17 00:50:50;;;;;;;21.02;9.38;;;;;;;11.27;94.29;101082.47;693755;28;4323;-56
2021/08/17 00:51:11;;;;;;;19.83;9.13;;;;;;;11.35;93.87;101085.06;693629;28;1732;-56
2021/08/17 00:51:31;;;;;;;19.20;9.00;;;;;;;11.31;93.95;101085.94;693637;28;1526;-56
2021/08/17 00:52:00;;;;;;;23.00;9.43;;;;;;;11.28;93.81;101083.34;694708;28;899;-53
2021/08/17 00:52:20;;;;;;;19.42;9.40;;;;;;;11.30;94.16;101087.72;694910;28;1203;-52
2021/08/17 00:52:42;;;;;;;19.08;9.15;;;;;;;11.37;93.44;101085.97;694925;28;904;-56
2021/08/17 00:53:03;;;;;;;19.50;9.82;;;;;;;11.27;93.47;101090.34;693685;28;997;-56
2021/08/17 00:53:24;;;;;;;21.02;10.40;;;;;;;11.21;93.79;101085.09;694849;28;4662;-56
2021/08/17 00:53:45;;;;;;;20.73;10.10;;;;;;;11.22;93.80;101087.69;694000;28;4134;-53
2021/08/17 00:54:06;;;;;;;19.80;9.65;;;;;;;11.21;93.67;101087.69;693819;28;1583;-53
2021/08/17 00:54:27;;;;;;;21.17;9.60;;;;;;;11.19;93.33;101084.22;693903;28;1810;-55
2021/08/17 00:54:48;;;;;;;22.92;10.20;;;;;;;11.18;94.33;101082.47;694411;28;847;-55
2021/08/17 00:55:10;;;;;;;23.57;10.40;;;;;;;11.33;93.69;101082.47;693052;28;1036;-57
2021/08/17 00:55:32;;;;;;;22.55;9.77;;;;;;;11.29;93.88;101078.09;694647;28;981;-55
2021/08/17 00:55:53;;;;;;;21.58;9.88;;;;;;;11.27;93.59;101089.44;694591;28;1010;-56
2021/08/17 00:56:14;;;;;;;21.10;9.65;;;;;;;11.31;93.07;101086.84;694924;28;4397;-52
2021/08/17 00:56:37;;;;;;;22.40;9.80;;;;;;;11.31;92.56;101085.94;693635;28;4419;-56
2021/08/17 00:56:58;;;;;;;23.65;10.43;;;;;;;11.27;93.64;101086.81;694770;28;2089;-55
2021/08/17 00:57:18;;;;;;;22.35;10.10;;;;;;;11.23;94.21;101089.44;694162;28;1534;-53
2021/08/17 00:57:43;;;;;;;25.60;10.70;;;;;;;11.24;94.60;101090.31;695132;28;1291;-56
2021/08/17 00:58:03;;;;;;;23.50;10.65;;;;;;;11.20;94.70;101084.22;695128;28;1014;-55
2021/08/17 00:58:24;;;;;;;21.60;10.60;;;;;;;11.17;94.71;101083.34;697298;28;838;-54
2021/08/17 00:58:44;;;;;;;23.40;10.40;;;;;;;11.22;95.32;101085.09;696977;28;891;-54
2021/08/17 00:59:09;;;;;;;25.77;10.47;;;;;;;11.22;94.52;101090.31;696946;28;1024;-55
2021/08/17 00:59:31;;;;;;;23.20;10.68;;;;;;;11.19;94.55;101085.09;693102;28;4987;-57
2021/08/17 00:59:52;;;;;;;21.60;10.60;;;;;;;11.20;94.66;101083.34;694776;28;4583;-56
2021/08/17 01:00:13;;;;;;;22.30;10.50;;;;;;;11.28;94.54;101086.81;693529;28;1530;-56
2021/08/17 01:00:33;;;;;;;21.90;11.02;;;;;;;11.27;94.31;101086.81;695162;28;828;-55
2021/08/17 01:00:56;;;;;;;23.03;10.77;;;;;;;11.26;94.33;101083.34;695869;28;832;-53
2021/08/17 01:01:19;;;;;;;24.92;11.38;;;;;;;11.31;93.70;101085.94;695341;28;1096;-54
2021/08/17 01:01:39;;;;;;;22.77;10.23;;;;;;;11.28;93.40;101085.97;695666;28;1636;-55
2021/08/17 01:02:03;;;;;;;22.00;9.95;;;;;;;11.32;93.68;101083.31;694988;28;919;-55
2021/08/17 01:02:24;;;;;;;23.65;10.57;;;;;;;11.33;93.84;101079.84;692547;28;4592;-53
2021/08/17 01:02:46;;;;;;;21.85;10.48;;;;;;;11.38;93.56;101078.09;693372;28;4167;-53
2021/08/17 01:03:06;;;;;;;21.90;10.45;;;;;;;11.37;93.27;101084.19;693680;28;1832;-55
2021/08/17 01:03:28;;;;;;;22.67;10.60;;;;;;;11.31;93.70;101080.72;694700;28;926;-52
2021/08/17 01:03:49;;;;;;;25.85;11.27;;;;;;;11.24;94.41;101080.72;693339;28;847;-53
2021/08/17 01:04:13;;;;;;;24.33;10.98;;;;;;;11.18;94.95;101078.09;694534;28;1097;-53
2021/08/17 01:04:35;;;;;;;27.02;10.90;;;;;;;11.15;94.92;101080.72;694030;28;808;-56
2021/08/17 01:04:55;;;;;;;24.58;10.95;;;;;;;11.10;95.03;101077.22;694872;28;981;-55
2021/08/17 01:05:23;;;;;;;24.50;10.90;;;;;;;11.09;95.18;101085.97;694661;28;4527;-53
2021/08/17 01:05:43;;;;;;;23.55;10.88;;;;;;;11.07;95.36;101085.94;696490;28;4408;-55
2021/08/17 01:06:04;;;;;;;26.55;10.93;;;;;;;11.08;95.51;101084.22;696442;28;1572;-53
2021/08/17 01:06:26;;;;;;;24.00;10.97;;;;;;;11.07;95.20;101082.47;697020;28;892;-55
2021/08/17 01:06:48;;;;;;;23.42;10.90;;;;;;;11.04;95.26;101079.88;695572;28;1975;-56
2021/08/17 01:07:10;;;;;;;26.95;11.20;;;;;;;11.04;95.38;101082.47;695535;28;1554;-54
2021/08/17 01:07:30;;;;;;;26.73;11.73;;;;;;;11.05;95.73;101082.47;694758;28;879;-56
2021/08/17 01:07:51;;;;;;;27.63;11.80;;;;;;;11.04;95.78;101085.09;695469;28;920;-53
2021/08/17 01:08:11;;;;;;;26.92;11.90;;;;;;;11.03;95.58;101075.50;694883;28;4402;-53
2021/08/17 01:08:33;;;;;;;23.57;11.07;;;;;;;11.14;95.53;101078.13;694978;28;4638;-55
2021/08/17 01:08:53;;;;;;;25.35;11.20;;;;;;;11.22;95.32;101081.59;696347;28;1498;-56
2021/08/17 01:09:14;;;;;;;26.23;11.63;;;;;;;11.16;95.46;101079.88;696827;28;1576;-52
2021/08/17 01:09:35;;;;;;;28.42;11.93;;;;;;;11.13;95.77;101081.59;698141;28;959;-58
2021/08/17 01:09:56;;;;;;;28.52;12.27;;;;;;;11.08;95.42;101079.84;696727;28;989;-56
2021/08/17 01:10:16;;;;;;;27.35;12.27;;;;;;;11.06;95.40;101078.09;696187;28;891;-56
2021/08/17 01:10:38;;;;;;;27.97;11.90;;;;;;;11.03;95.83;101076.34;696863;28;943;-57
2021/08/17 01:10:58;;;;;;;26.75;11.65;;;;;;;11.03;95.68;101085.97;694685;28;2280;-57
2021/08/17 01:11:18;;;;;;;26.17;11.83;;;;;;;11.01;95.81;101083.34;691055;28;4724;-52
2021/08/17 01:11:45;;;;;;;24.83;11.57;;;;;;;11.09;95.57;101080.75;691471;28;4508;-55
2021/08/17 01:12:07;;;;;;;24.95;11.48;;;;;;;11.07;94.99;101082.47;691957;28;1432;-55
2021/08/17 01:12:28;;;;;;;27.63;11.57;;;;;;;11.21;94.83;101075.47;692655;28;1269;-56
2021/08/17 01:12:48;;;;;;;26.00;11.90;;;;;;;11.22;94.70;101076.38;693122;28;924;-54
2021/08/17 01:13:09;;;;;;;28.25;13.20;;;;;;;11.16;95.13;101078.97;696872;28;1045;-52
2021/08/17 01:13:29;;;;;;;27.90;12.73;;;;;;;11.10;95.33;101079.00;697824;28;3862;-57
2021/08/17 01:13:50;;;;;;;27.90;12.95;;;;;;;11.10;95.04;101081.59;697728;28;943;-53
2021/08/17 01:14:12;;;;;;;25.70;12.35;;;;;;;11.08;95.05;101079.84;695789;28;4445;-54
2021/08/17 01:14:33;;;;;;;27.55;12.57;;;;;;;11.07;94.99;101079.84;696944;28;4486;-53
2021/08/17 01:14:53;;;;;;;27.92;12.13;;;;;;;11.07;95.24;101079.84;697175;28;1655;-56
2021/08/17 01:15:16;;;;;;;27.97;12.13;;;;;;;11.05;95.81;101079.00;696288;28;1955;-56
2021/08/17 01:15:37;;;;;;;28.25;12.20;;;;;;;11.12;95.18;101083.34;696613;28;1025;-56
2021/08/17 01:15:58;;;;;;;27.45;12.48;;;;;;;11.16;95.50;101079.88;697174;28;785;-57
2021/08/17 01:16:20;;;;;;;27.17;12.70;;;;;;;11.16;94.89;101082.47;697339;28;896;-56
2021/08/17 01:16:42;;;;;;;25.58;11.93;;;;;;;11.14;94.49;101081.59;698183;28;942;-52
2021/08/17 01:17:02;;;;;;;25.25;11.88;;;;;;;11.11;94.92;101079.00;697783;28;1005;-57
2021/08/17 01:17:23;;;;;;;26.35;11.82;;;;;;;11.10;95.23;101086.84;696908;28;4509;-55
2021/08/17 01:17:44;;;;;;;27.13;12.27;;;;;;;11.06;95.87;101079.00;696362;28;1728;-54
2021/08/17 01:18:07;;;;;;;29.70;12.93;;;;;;;11.04;95.54;101080.72;693722;28;1748;-54
2021/08/17 01:18:27;;;;;;;27.73;12.68;;;;;;;11.10;95.51;101079.84;693684;28;868;-56
2021/08/17 01:18:49;;;;;;;26.57;12.30;;;;;;;11.10;95.41;101081.59;694670;28;1138;-54
2021/08/17 01:19:12;;;;;;;27.42;12.68;;;;;;;11.12;95.61;101082.47;695054;28;1023;-54
2021/08/17 01:19:35;;;;;;;26.92;12.23;;;;;;;11.21;95.00;101085.09;694495;28;898;-54
2021/08/17 01:19:56;;;;;;;27.48;12.48;;;;;;;11.18;94.69;101079.88;696375;28;949;-56
2021/08/17 01:20:19;;;;;;;28.53;12.67;;;;;;;11.31;94.87;101083.31;696105;28;4584;-54
2021/08/17 01:20:41;;;;;;;27.92;12.52;;;;;;;11.28;93.89;101091.19;693818;28;4633;-55
2021/08/17 01:21:07;;;;;;;25.55;11.88;;;;;;;11.23;94.50;101089.44;694189;28;1828;-54
2021/08/17 01:21:30;;;;;;;26.55;12.20;;;;;;;11.39;94.93;101086.81;694322;28;857;-56
2021/08/17 01:21:51;;;;;;;24.50;12.13;;;;;;;11.50;94.32;101087.66;694310;28;1749;-52
2021/08/17 01:22:12;;;;;;;24.42;12.23;;;;;;;11.47;93.63;101087.69;693985;28;1197;-55
2021/08/17 01:22:33;;;;;;;25.40;11.40;;;;;;;11.43;93.07;101085.06;695468;28;1101;-56
2021/08/17 01:22:54;;;;;;;26.00;11.67;;;;;;;11.38;92.61;101085.06;697531;28;846;-56
2021/08/17 01:23:18;;;;;;;24.85;11.40;;;;;;;11.28;93.50;101085.97;695566;28;4584;-53
2021/08/17 01:23:39;;;;;;;27.63;12.63;;;;;;;11.22;94.27;101084.22;695994;28;1762;-54
2021/08/17 01:24:00;;;;;;;25.77;12.52;;;;;;;11.17;94.15;101088.56;696294;28;1803;-54
2021/08/17 01:24:20;;;;;;;27.77;12.55;;;;;;;11.14;94.27;101084.22;696579;28;1099;-56
2021/08/17 01:24:41;;;;;;;26.42;12.75;;;;;;;11.13;94.28;101085.09;697107;28;1403;-53
2021/08/17 01:25:01;;;;;;;25.33;12.30;;;;;;;11.11;94.85;101092.06;697510;28;1086;-54
2021/08/17 01:25:24;;;;;;;27.42;12.65;;;;;;;11.12;94.90;101087.69;696878;28;792;-56
2021/08/17 01:25:44;;;;;;;29.52;13.05;;;;;;;11.11;94.88;101089.44;698084;28;911;-54
2021/08/17 01:26:05;;;;;;;27.70;12.65;;;;;;;11.10;94.55;101090.31;696592;28;4031;-53
2021/08/17 01:26:26;;;;;;;30.52;12.93;;;;;;;11.12;95.08;101090.31;695782;28;4487;-53
2021/08/17 01:26:49;;;;;;;33.20;13.50;;;;;;;11.09;95.31;101088.59;696150;28;1930;-56
2021/08/17 01:27:10;;;;;;;33.00;13.90;;;;;;;11.05;95.44;101094.69;696865;28;1475;-56
2021/08/17 01:27:30;;;;;;;31.10;13.82;;;;;;;11.02;95.61;101090.34;697291;28;987;-55
2021/08/17 01:27:51;;;;;;;28.37;13.07;;;;;;;11.24;95.48;101079.84;697473;28;888;-54
2021/08/17 01:28:11;;;;;;;27.63;13.05;;;;;;;11.41;94.38;101087.69;696491;28;1298;-52
2021/08/17 01:28:31;;;;;;;27.80;13.20;;;;;;;11.35;93.92;101087.69;697295;28;904;-54
2021/08/17 01:28:52;;;;;;;29.55;13.55;;;;;;;11.27;94.87;101094.69;696989;28;1043;-55
2021/08/17 01:29:15;;;;;;;30.97;13.60;;;;;;;11.20;94.87;101089.47;696265;28;4713;-56
2021/08/17 01:29:36;;;;;;;30.95;13.55;;;;;;;11.14;95.00;101081.59;696472;28;1435;-53
2021/08/17 01:29:56;;;;;;;31.03;13.97;;;;;;;11.11;95.16;101084.22;693509;28;1017;-52
2021/08/17 01:30:17;;;;;;;31.73;14.63;;;;;;;11.08;95.34;101085.09;695991;28;1025;-54
2021/08/17 01:30:37;;;;;;;33.53;13.83;;;;;;;11.06;95.57;101085.97;694756;28;827;-57
2021/08/17 01:30:59;;;;;;;31.17;12.95;;;;;;;11.05;95.30;101077.25;694092;28;1125;-54
2021/08/17 01:31:19;;;;;;;30.48;13.10;;;;;;;11.04;95.43;101088.56;694715;28;1279;-54
2021/08/17 01:31:40;;;;;;;30.40;13.33;;;;;;;11.04;95.06;101092.94;695033;28;1247;-54
2021/08/17 01:32:00;;;;;;;28.77;12.87;;;;;;;11.06;95.79;101089.47;696916;28;3326;-55
2021/08/17 01:32:20;;;;;;;30.88;13.45;;;;;;;11.05;95.89;101094.69;695700;28;4591;-56
2021/08/17 01:32:44;;;;;;;31.53;13.27;;;;;;;10.97;95.78;101081.59;696280;28;1316;-55
2021/08/17 01:33:05;;;;;;;30.98;14.45;;;;;;;10.95;96.03;101091.22;696535;28;1479;-56
2021/08/17 01:33:25;;;;;;;33.15;14.63;;;;;;;10.95;95.93;101090.31;698108;28;771;-55
2021/08/17 01:33:46;;;;;;;32.07;14.00;;;;;;;10.95;95.72;101092.94;698063;28;1332;-56
2021/08/17 01:34:06;;;;;;;30.00;13.25;;;;;;;10.94;95.76;101083.34;696784;28;999;-57
2021/08/17 01:34:26;;;;;;;33.43;13.43;;;;;;;10.96;96.32;101085.09;697745;28;788;-58
2021/08/17 01:34:47;;;;;;;32.45;13.85;;;;;;;10.97;96.26;101091.22;698176;28;805;-55
2021/08/17 01:35:07;;;;;;;32.23;14.10;;;;;;;10.97;95.87;101088.59;696013;28;4445;-53
2021/08/17 01:35:28;;;;;;;33.97;14.52;;;;;;;10.98;95.95;101092.94;693247;28;1621;-53
2021/08/17 01:35:48;;;;;;;34.53;14.50;;;;;;;11.11;96.10;101089.44;693969;28;1566;-54
2021/08/17 01:36:09;;;;;;;33.17;14.23;;;;;;;11.11;95.66;101088.59;694328;28;1166;-53
2021/08/17 01:36:29;;;;;;;33.93;14.10;;;;;;;11.14;95.33;101089.44;694829;28;915;-53
2021/08/17 01:36:50;;;;;;;31.92;14.07;;;;;;;11.13;95.26;101094.69;695451;28;1208;-55
2021/08/17 01:37:11;;;;;;;31.38;13.98;;;;;;;11.21;95.41;101085.94;693708;28;1261;-53
2021/08/17 01:37:31;;;;;;;32.00;13.87;;;;;;;11.27;94.61;101089.44;695679;28;864;-53
2021/08/17 01:37:51;;;;;;;29.90;14.27;;;;;;;11.29;94.62;101087.72;695470;28;967;-56
2021/08/17 01:38:12;;;;;;;31.60;14.13;;;;;;;11.24;94.74;101091.19;693443;28;4963;-56
2021/08/17 01:38:32;;;;;;;31.40;14.48;;;;;;;11.23;94.88;101092.06;694563;28;1483;-56
2021/08/17 01:38:53;;;;;;;31.10;14.80;;;;;;;11.22;94.43;101092.94;693817;28;1666;-55
2021/08/17 01:39:13;;;;;;;30.73;14.13;;;;;;;11.24;94.82;101095.53;694729;28;1294;-55